sensor_id;sensor_type;location;lat;lon;timestamp;P1;durP1;ratioP1;P2;durP2;ratioP2
36191;SDS011;22233;42.708;23.360;2023-02-15T00:01:49;29.38;;;16.25;;
36191;SDS011;22233;42.708;23.360;2023-02-15T00:04:17;29.50;;;17.70;;
36191;SDS011;22233;42.708;23.360;2023-02-15T00:06:43;29.75;;;17.75;;
36191;SDS011;22233;42.708;23.360;2023-02-15T00:09:09;26.92;;;16.95;;
36191;SDS011;22233;42.708;23.360;2023-02-15T00:11:35;31.63;;;19.08;;
36191;SDS011;22233;42.708;23.360;2023-02-15T00:14:20;29.13;;;17.15;;
36191;SDS011;22233;42.708;23.360;2023-02-15T00:16:48;30.42;;;16.73;;
36191;SDS011;22233;42.708;23.360;2023-02-15T00:19:15;31.27;;;17.95;;
36191;SDS011;22233;42.708;23.360;2023-02-15T00:21:42;30.75;;;16.67;;
36191;SDS011;22233;42.708;23.360;2023-02-15T00:24:09;28.38;;;16.33;;
36191;SDS011;22233;42.708;23.360;2023-02-15T00:26:37;31.50;;;16.33;;
36191;SDS011;22233;42.708;23.360;2023-02-15T00:29:05;34.55;;;18.25;;
36191;SDS011;22233;42.708;23.360;2023-02-15T00:31:31;27.13;;;17.08;;
36191;SDS011;22233;42.708;23.360;2023-02-15T00:34:16;30.10;;;17.13;;
36191;SDS011;22233;42.708;23.360;2023-02-15T00:36:46;30.73;;;18.40;;
36191;SDS011;22233;42.708;23.360;2023-02-15T00:39:12;26.30;;;15.75;;
36191;SDS011;22233;42.708;23.360;2023-02-15T00:41:38;31.80;;;17.25;;
36191;SDS011;22233;42.708;23.360;2023-02-15T00:44:04;30.75;;;16.83;;
36191;SDS011;22233;42.708;23.360;2023-02-15T00:46:30;31.95;;;18.17;;
36191;SDS011;22233;42.708;23.360;2023-02-15T00:48:56;30.02;;;16.85;;
36191;SDS011;22233;42.708;23.360;2023-02-15T00:51:22;28.48;;;17.00;;
36191;SDS011;22233;42.708;23.360;2023-02-15T00:53:48;30.50;;;17.20;;
36191;SDS011;22233;42.708;23.360;2023-02-15T00:56:14;31.73;;;18.35;;
36191;SDS011;22233;42.708;23.360;2023-02-15T00:58:40;29.80;;;17.15;;
36191;SDS011;22233;42.708;23.360;2023-02-15T01:01:06;29.45;;;16.80;;
36191;SDS011;22233;42.708;23.360;2023-02-15T01:03:34;25.08;;;15.70;;
36191;SDS011;22233;42.708;23.360;2023-02-15T01:06:00;26.48;;;16.88;;
36191;SDS011;22233;42.708;23.360;2023-02-15T01:08:25;29.05;;;17.45;;
36191;SDS011;22233;42.708;23.360;2023-02-15T01:10:51;33.00;;;17.55;;
36191;SDS011;22233;42.708;23.360;2023-02-15T01:13:16;28.67;;;16.88;;
36191;SDS011;22233;42.708;23.360;2023-02-15T01:15:43;28.50;;;16.63;;
36191;SDS011;22233;42.708;23.360;2023-02-15T01:18:09;28.20;;;15.88;;
36191;SDS011;22233;42.708;23.360;2023-02-15T01:20:36;32.20;;;17.47;;
36191;SDS011;22233;42.708;23.360;2023-02-15T01:23:04;27.08;;;16.73;;
36191;SDS011;22233;42.708;23.360;2023-02-15T01:25:30;27.48;;;16.25;;
36191;SDS011;22233;42.708;23.360;2023-02-15T01:27:58;24.98;;;14.25;;
36191;SDS011;22233;42.708;23.360;2023-02-15T01:30:24;25.48;;;14.82;;
36191;SDS011;22233;42.708;23.360;2023-02-15T01:32:49;26.77;;;15.75;;
36191;SDS011;22233;42.708;23.360;2023-02-15T01:35:14;27.45;;;15.27;;
36191;SDS011;22233;42.708;23.360;2023-02-15T01:37:40;24.92;;;15.55;;
36191;SDS011;22233;42.708;23.360;2023-02-15T01:40:06;25.42;;;14.85;;
36191;SDS011;22233;42.708;23.360;2023-02-15T01:42:34;26.58;;;15.32;;
36191;SDS011;22233;42.708;23.360;2023-02-15T01:45:01;26.60;;;15.25;;
36191;SDS011;22233;42.708;23.360;2023-02-15T01:52:58;25.42;;;15.73;;
36191;SDS011;22233;42.708;23.360;2023-02-15T01:55:35;26.58;;;15.63;;
36191;SDS011;22233;42.708;23.360;2023-02-15T01:58:03;25.95;;;13.98;;
36191;SDS011;22233;42.708;23.360;2023-02-15T02:00:29;27.15;;;15.60;;
36191;SDS011;22233;42.708;23.360;2023-02-15T02:02:55;27.10;;;15.65;;
36191;SDS011;22233;42.708;23.360;2023-02-15T02:05:22;25.92;;;15.27;;
36191;SDS011;22233;42.708;23.360;2023-02-15T02:07:48;25.58;;;16.35;;
36191;SDS011;22233;42.708;23.360;2023-02-15T02:10:18;25.65;;;14.90;;
36191;SDS011;22233;42.708;23.360;2023-02-15T02:12:47;28.73;;;16.13;;
36191;SDS011;22233;42.708;23.360;2023-02-15T02:15:15;24.45;;;14.68;;
36191;SDS011;22233;42.708;23.360;2023-02-15T02:17:54;27.00;;;15.45;;
36191;SDS011;22233;42.708;23.360;2023-02-15T02:34:12;25.92;;;15.30;;
36191;SDS011;22233;42.708;23.360;2023-02-15T02:37:01;25.20;;;13.80;;
36191;SDS011;22233;42.708;23.360;2023-02-15T02:44:47;25.90;;;16.05;;
36191;SDS011;22233;42.708;23.360;2023-02-15T02:50:07;24.50;;;14.55;;
36191;SDS011;22233;42.708;23.360;2023-02-15T02:52:36;25.30;;;15.13;;
36191;SDS011;22233;42.708;23.360;2023-02-15T02:55:15;25.70;;;14.73;;
36191;SDS011;22233;42.708;23.360;2023-02-15T02:57:43;26.00;;;16.00;;
36191;SDS011;22233;42.708;23.360;2023-02-15T03:00:35;24.83;;;15.20;;
36191;SDS011;22233;42.708;23.360;2023-02-15T03:03:06;25.63;;;14.95;;
36191;SDS011;22233;42.708;23.360;2023-02-15T03:05:59;25.27;;;15.52;;
36191;SDS011;22233;42.708;23.360;2023-02-15T03:08:36;25.98;;;15.25;;
36191;SDS011;22233;42.708;23.360;2023-02-15T03:11:05;24.17;;;14.45;;
36191;SDS011;22233;42.708;23.360;2023-02-15T03:13:31;23.55;;;14.57;;
36191;SDS011;22233;42.708;23.360;2023-02-15T03:15:57;25.73;;;14.98;;
36191;SDS011;22233;42.708;23.360;2023-02-15T03:18:44;25.35;;;16.17;;
36191;SDS011;22233;42.708;23.360;2023-02-15T03:24:23;23.38;;;14.25;;
36191;SDS011;22233;42.708;23.360;2023-02-15T03:26:53;26.10;;;15.10;;
36191;SDS011;22233;42.708;23.360;2023-02-15T03:29:21;24.80;;;14.55;;
36191;SDS011;22233;42.708;23.360;2023-02-15T03:31:55;24.17;;;14.43;;
36191;SDS011;22233;42.708;23.360;2023-02-15T03:34:24;24.63;;;14.60;;
36191;SDS011;22233;42.708;23.360;2023-02-15T03:36:58;26.73;;;14.43;;
36191;SDS011;22233;42.708;23.360;2023-02-15T03:39:42;22.70;;;13.55;;
36191;SDS011;22233;42.708;23.360;2023-02-15T03:47:27;24.17;;;14.85;;
36191;SDS011;22233;42.708;23.360;2023-02-15T03:50:01;22.75;;;13.05;;
36191;SDS011;22233;42.708;23.360;2023-02-15T03:53:08;26.08;;;14.10;;
36191;SDS011;22233;42.708;23.360;2023-02-15T03:55:37;21.98;;;13.68;;
36191;SDS011;22233;42.708;23.360;2023-02-15T03:58:02;24.52;;;13.50;;
36191;SDS011;22233;42.708;23.360;2023-02-15T04:03:57;24.73;;;13.65;;
36191;SDS011;22233;42.708;23.360;2023-02-15T04:06:28;20.83;;;12.73;;
36191;SDS011;22233;42.708;23.360;2023-02-15T04:08:53;20.95;;;12.93;;
36191;SDS011;22233;42.708;23.360;2023-02-15T04:11:37;21.52;;;12.43;;
36191;SDS011;22233;42.708;23.360;2023-02-15T04:14:03;22.10;;;13.80;;
36191;SDS011;22233;42.708;23.360;2023-02-15T04:16:48;21.13;;;13.10;;
36191;SDS011;22233;42.708;23.360;2023-02-15T04:19:14;24.27;;;14.35;;
36191;SDS011;22233;42.708;23.360;2023-02-15T04:21:58;20.85;;;12.73;;
36191;SDS011;22233;42.708;23.360;2023-02-15T04:24:42;21.60;;;13.27;;
36191;SDS011;22233;42.708;23.360;2023-02-15T04:27:27;23.65;;;13.60;;
36191;SDS011;22233;42.708;23.360;2023-02-15T04:29:52;24.05;;;13.68;;
36191;SDS011;22233;42.708;23.360;2023-02-15T04:32:17;24.77;;;13.88;;
36191;SDS011;22233;42.708;23.360;2023-02-15T04:34:43;20.88;;;13.75;;
36191;SDS011;22233;42.708;23.360;2023-02-15T04:37:08;23.45;;;13.27;;
36191;SDS011;22233;42.708;23.360;2023-02-15T04:39:35;24.43;;;14.47;;
36191;SDS011;22233;42.708;23.360;2023-02-15T04:42:00;20.40;;;12.73;;
36191;SDS011;22233;42.708;23.360;2023-02-15T04:44:26;23.23;;;12.45;;
36191;SDS011;22233;42.708;23.360;2023-02-15T04:46:51;23.17;;;14.23;;
36191;SDS011;22233;42.708;23.360;2023-02-15T04:49:17;25.80;;;14.68;;
36191;SDS011;22233;42.708;23.360;2023-02-15T04:51:42;23.27;;;15.32;;
36191;SDS011;22233;42.708;23.360;2023-02-15T04:54:07;26.83;;;15.13;;
36191;SDS011;22233;42.708;23.360;2023-02-15T04:56:33;28.73;;;16.55;;
36191;SDS011;22233;42.708;23.360;2023-02-15T04:58:59;27.77;;;16.20;;
36191;SDS011;22233;42.708;23.360;2023-02-15T05:01:25;28.27;;;15.60;;
36191;SDS011;22233;42.708;23.360;2023-02-15T05:03:50;22.75;;;14.35;;
36191;SDS011;22233;42.708;23.360;2023-02-15T05:06:16;25.70;;;15.00;;
36191;SDS011;22233;42.708;23.360;2023-02-15T05:08:41;22.35;;;13.65;;
36191;SDS011;22233;42.708;23.360;2023-02-15T05:11:06;24.42;;;15.13;;
36191;SDS011;22233;42.708;23.360;2023-02-15T05:13:32;22.20;;;15.45;;
36191;SDS011;22233;42.708;23.360;2023-02-15T05:15:57;24.70;;;15.20;;
36191;SDS011;22233;42.708;23.360;2023-02-15T05:18:23;27.02;;;15.32;;
36191;SDS011;22233;42.708;23.360;2023-02-15T05:20:48;26.02;;;15.70;;
36191;SDS011;22233;42.708;23.360;2023-02-15T05:23:14;22.42;;;13.50;;
36191;SDS011;22233;42.708;23.360;2023-02-15T05:25:40;24.83;;;14.30;;
36191;SDS011;22233;42.708;23.360;2023-02-15T05:28:25;23.95;;;14.05;;
36191;SDS011;22233;42.708;23.360;2023-02-15T05:31:09;25.10;;;13.20;;
36191;SDS011;22233;42.708;23.360;2023-02-15T05:33:39;25.80;;;14.23;;
36191;SDS011;22233;42.708;23.360;2023-02-15T05:36:05;24.92;;;13.93;;
36191;SDS011;22233;42.708;23.360;2023-02-15T05:38:32;24.23;;;14.50;;
36191;SDS011;22233;42.708;23.360;2023-02-15T05:40:58;25.63;;;14.40;;
36191;SDS011;22233;42.708;23.360;2023-02-15T05:43:24;23.80;;;14.52;;
36191;SDS011;22233;42.708;23.360;2023-02-15T05:45:50;23.92;;;14.63;;
36191;SDS011;22233;42.708;23.360;2023-02-15T05:48:18;24.73;;;14.68;;
36191;SDS011;22233;42.708;23.360;2023-02-15T05:50:45;22.88;;;13.65;;
36191;SDS011;22233;42.708;23.360;2023-02-15T05:53:10;23.98;;;14.30;;
36191;SDS011;22233;42.708;23.360;2023-02-15T05:55:39;23.73;;;15.45;;
36191;SDS011;22233;42.708;23.360;2023-02-15T05:58:06;24.13;;;14.48;;
36191;SDS011;22233;42.708;23.360;2023-02-15T06:00:32;22.43;;;14.73;;
36191;SDS011;22233;42.708;23.360;2023-02-15T06:02:58;25.05;;;14.13;;
36191;SDS011;22233;42.708;23.360;2023-02-15T06:05:24;25.42;;;15.02;;
36191;SDS011;22233;42.708;23.360;2023-02-15T06:07:49;25.80;;;14.32;;
36191;SDS011;22233;42.708;23.360;2023-02-15T06:10:14;22.70;;;13.98;;
36191;SDS011;22233;42.708;23.360;2023-02-15T06:12:40;23.17;;;13.35;;
36191;SDS011;22233;42.708;23.360;2023-02-15T06:15:05;28.83;;;15.68;;
36191;SDS011;22233;42.708;23.360;2023-02-15T06:17:31;23.55;;;14.07;;
36191;SDS011;22233;42.708;23.360;2023-02-15T06:19:57;25.92;;;14.32;;
36191;SDS011;22233;42.708;23.360;2023-02-15T06:22:23;23.73;;;13.68;;
36191;SDS011;22233;42.708;23.360;2023-02-15T06:24:48;25.50;;;14.93;;
36191;SDS011;22233;42.708;23.360;2023-02-15T06:27:14;22.27;;;13.43;;
36191;SDS011;22233;42.708;23.360;2023-02-15T06:29:39;23.27;;;14.38;;
36191;SDS011;22233;42.708;23.360;2023-02-15T06:32:05;23.20;;;12.93;;
36191;SDS011;22233;42.708;23.360;2023-02-15T06:34:30;22.75;;;14.05;;
36191;SDS011;22233;42.708;23.360;2023-02-15T06:36:56;22.35;;;13.45;;
36191;SDS011;22233;42.708;23.360;2023-02-15T06:39:21;23.50;;;13.55;;
36191;SDS011;22233;42.708;23.360;2023-02-15T06:41:47;23.63;;;14.00;;
36191;SDS011;22233;42.708;23.360;2023-02-15T06:44:13;23.73;;;13.63;;
36191;SDS011;22233;42.708;23.360;2023-02-15T06:46:38;25.42;;;14.52;;
36191;SDS011;22233;42.708;23.360;2023-02-15T06:49:04;21.15;;;13.50;;
36191;SDS011;22233;42.708;23.360;2023-02-15T06:51:29;23.65;;;13.55;;
36191;SDS011;22233;42.708;23.360;2023-02-15T06:53:55;23.60;;;13.30;;
36191;SDS011;22233;42.708;23.360;2023-02-15T06:56:20;24.27;;;12.80;;
36191;SDS011;22233;42.708;23.360;2023-02-15T06:58:45;21.15;;;12.70;;
36191;SDS011;22233;42.708;23.360;2023-02-15T07:01:13;22.67;;;13.98;;
36191;SDS011;22233;42.708;23.360;2023-02-15T07:03:39;26.20;;;14.27;;
36191;SDS011;22233;42.708;23.360;2023-02-15T07:06:04;22.52;;;13.38;;
36191;SDS011;22233;42.708;23.360;2023-02-15T07:08:33;21.60;;;12.32;;
36191;SDS011;22233;42.708;23.360;2023-02-15T07:10:59;25.02;;;13.77;;
36191;SDS011;22233;42.708;23.360;2023-02-15T07:13:45;24.83;;;13.85;;
36191;SDS011;22233;42.708;23.360;2023-02-15T07:16:11;21.97;;;12.97;;
36191;SDS011;22233;42.708;23.360;2023-02-15T07:18:37;21.95;;;13.27;;
36191;SDS011;22233;42.708;23.360;2023-02-15T07:21:03;22.33;;;14.35;;
36191;SDS011;22233;42.708;23.360;2023-02-15T07:23:29;22.87;;;13.77;;
36191;SDS011;22233;42.708;23.360;2023-02-15T07:25:58;24.17;;;14.52;;
36191;SDS011;22233;42.708;23.360;2023-02-15T07:28:24;19.00;;;12.38;;
36191;SDS011;22233;42.708;23.360;2023-02-15T07:30:50;23.52;;;13.73;;
36191;SDS011;22233;42.708;23.360;2023-02-15T07:33:15;22.00;;;13.02;;
36191;SDS011;22233;42.708;23.360;2023-02-15T07:35:55;23.20;;;12.90;;
36191;SDS011;22233;42.708;23.360;2023-02-15T07:38:23;20.30;;;13.25;;
36191;SDS011;22233;42.708;23.360;2023-02-15T07:40:50;22.75;;;13.18;;
36191;SDS011;22233;42.708;23.360;2023-02-15T07:43:16;24.27;;;14.77;;
36191;SDS011;22233;42.708;23.360;2023-02-15T07:45:42;22.40;;;12.70;;
36191;SDS011;22233;42.708;23.360;2023-02-15T07:48:08;20.13;;;12.68;;
36191;SDS011;22233;42.708;23.360;2023-02-15T07:50:33;23.75;;;13.32;;
36191;SDS011;22233;42.708;23.360;2023-02-15T07:53:03;19.15;;;12.93;;
36191;SDS011;22233;42.708;23.360;2023-02-15T07:55:28;20.45;;;11.90;;
36191;SDS011;22233;42.708;23.360;2023-02-15T07:57:54;21.20;;;12.80;;
36191;SDS011;22233;42.708;23.360;2023-02-15T08:00:20;23.27;;;13.60;;
36191;SDS011;22233;42.708;23.360;2023-02-15T08:02:53;23.33;;;13.02;;
36191;SDS011;22233;42.708;23.360;2023-02-15T08:05:39;22.77;;;13.23;;
36191;SDS011;22233;42.708;23.360;2023-02-15T08:08:09;24.38;;;13.63;;
36191;SDS011;22233;42.708;23.360;2023-02-15T08:11:09;26.50;;;13.85;;
36191;SDS011;22233;42.708;23.360;2023-02-15T08:13:51;21.98;;;12.75;;
36191;SDS011;22233;42.708;23.360;2023-02-15T08:17:19;22.38;;;12.98;;
36191;SDS011;22233;42.708;23.360;2023-02-15T08:21:50;22.98;;;14.13;;
36191;SDS011;22233;42.708;23.360;2023-02-15T08:24:19;24.23;;;15.32;;
36191;SDS011;22233;42.708;23.360;2023-02-15T08:26:45;26.35;;;16.13;;
36191;SDS011;22233;42.708;23.360;2023-02-15T08:29:13;23.90;;;13.87;;
36191;SDS011;22233;42.708;23.360;2023-02-15T08:34:06;20.60;;;12.73;;
36191;SDS011;22233;42.708;23.360;2023-02-15T08:36:36;21.92;;;14.00;;
36191;SDS011;22233;42.708;23.360;2023-02-15T08:39:02;22.58;;;13.57;;
36191;SDS011;22233;42.708;23.360;2023-02-15T08:41:30;19.95;;;12.75;;
36191;SDS011;22233;42.708;23.360;2023-02-15T08:43:58;20.58;;;13.60;;
36191;SDS011;22233;42.708;23.360;2023-02-15T08:46:29;21.88;;;13.60;;
36191;SDS011;22233;42.708;23.360;2023-02-15T08:48:56;23.33;;;13.48;;
36191;SDS011;22233;42.708;23.360;2023-02-15T08:51:26;20.65;;;11.93;;
36191;SDS011;22233;42.708;23.360;2023-02-15T08:53:55;21.17;;;12.52;;
36191;SDS011;22233;42.708;23.360;2023-02-15T08:56:25;18.73;;;12.15;;
36191;SDS011;22233;42.708;23.360;2023-02-15T08:58:55;18.85;;;11.35;;
36191;SDS011;22233;42.708;23.360;2023-02-15T09:01:32;21.05;;;11.80;;
36191;SDS011;22233;42.708;23.360;2023-02-15T09:06:38;15.60;;;10.77;;
36191;SDS011;22233;42.708;23.360;2023-02-15T09:09:05;19.27;;;11.45;;
36191;SDS011;22233;42.708;23.360;2023-02-15T09:11:36;20.42;;;12.07;;
36191;SDS011;22233;42.708;23.360;2023-02-15T09:14:05;16.55;;;10.40;;
36191;SDS011;22233;42.708;23.360;2023-02-15T09:16:33;13.82;;;8.93;;
36191;SDS011;22233;42.708;23.360;2023-02-15T09:19:09;16.67;;;10.25;;
36191;SDS011;22233;42.708;23.360;2023-02-15T09:21:37;14.73;;;9.98;;
36191;SDS011;22233;42.708;23.360;2023-02-15T09:24:04;16.75;;;10.15;;
36191;SDS011;22233;42.708;23.360;2023-02-15T09:26:32;16.23;;;10.13;;
36191;SDS011;22233;42.708;23.360;2023-02-15T09:29:00;16.92;;;10.23;;
36191;SDS011;22233;42.708;23.360;2023-02-15T09:31:29;14.23;;;10.35;;
36191;SDS011;22233;42.708;23.360;2023-02-15T09:38:57;15.90;;;10.25;;
36191;SDS011;22233;42.708;23.360;2023-02-15T09:49:37;17.35;;;9.95;;
36191;SDS011;22233;42.708;23.360;2023-02-15T09:57:39;16.55;;;10.38;;
36191;SDS011;22233;42.708;23.360;2023-02-15T10:23:14;15.57;;;10.57;;
36191;SDS011;22233;42.708;23.360;2023-02-15T10:28:45;14.65;;;10.23;;
36191;SDS011;22233;42.708;23.360;2023-02-15T10:34:02;17.20;;;10.32;;
36191;SDS011;22233;42.708;23.360;2023-02-15T10:39:05;18.67;;;10.85;;
36191;SDS011;22233;42.708;23.360;2023-02-15T10:55:23;16.30;;;11.02;;
36191;SDS011;22233;42.708;23.360;2023-02-15T11:06:30;17.42;;;11.07;;
36191;SDS011;22233;42.708;23.360;2023-02-15T11:08:59;18.02;;;11.52;;
36191;SDS011;22233;42.708;23.360;2023-02-15T11:11:30;18.48;;;11.23;;
36191;SDS011;22233;42.708;23.360;2023-02-15T11:14:02;17.65;;;10.77;;
36191;SDS011;22233;42.708;23.360;2023-02-15T11:16:34;20.08;;;11.63;;
36191;SDS011;22233;42.708;23.360;2023-02-15T11:19:08;21.85;;;11.73;;
36191;SDS011;22233;42.708;23.360;2023-02-15T11:21:40;18.85;;;11.43;;
36191;SDS011;22233;42.708;23.360;2023-02-15T11:24:10;18.50;;;12.27;;
36191;SDS011;22233;42.708;23.360;2023-02-15T11:26:38;19.73;;;11.98;;
36191;SDS011;22233;42.708;23.360;2023-02-15T11:29:18;20.83;;;11.88;;
36191;SDS011;22233;42.708;23.360;2023-02-15T11:31:54;20.70;;;11.77;;
36191;SDS011;22233;42.708;23.360;2023-02-15T11:34:24;18.60;;;12.23;;
36191;SDS011;22233;42.708;23.360;2023-02-15T11:36:58;18.60;;;10.85;;
36191;SDS011;22233;42.708;23.360;2023-02-15T11:39:28;18.88;;;12.05;;
36191;SDS011;22233;42.708;23.360;2023-02-15T11:41:57;19.88;;;12.68;;
36191;SDS011;22233;42.708;23.360;2023-02-15T11:44:34;20.38;;;11.85;;
36191;SDS011;22233;42.708;23.360;2023-02-15T11:47:09;19.13;;;12.23;;
36191;SDS011;22233;42.708;23.360;2023-02-15T11:49:36;19.23;;;12.45;;
36191;SDS011;22233;42.708;23.360;2023-02-15T11:52:06;21.00;;;12.52;;
36191;SDS011;22233;42.708;23.360;2023-02-15T11:54:36;16.58;;;12.15;;
36191;SDS011;22233;42.708;23.360;2023-02-15T11:57:11;23.38;;;12.45;;
36191;SDS011;22233;42.708;23.360;2023-02-15T11:59:37;18.23;;;11.80;;
36191;SDS011;22233;42.708;23.360;2023-02-15T12:02:15;18.52;;;11.73;;
36191;SDS011;22233;42.708;23.360;2023-02-15T12:04:44;16.23;;;10.90;;
36191;SDS011;22233;42.708;23.360;2023-02-15T12:07:20;16.90;;;10.52;;
36191;SDS011;22233;42.708;23.360;2023-02-15T12:12:26;18.30;;;11.13;;
36191;SDS011;22233;42.708;23.360;2023-02-15T12:14:53;18.13;;;11.98;;
36191;SDS011;22233;42.708;23.360;2023-02-15T12:17:21;20.27;;;12.80;;
36191;SDS011;22233;42.708;23.360;2023-02-15T12:19:48;18.42;;;12.13;;
36191;SDS011;22233;42.708;23.360;2023-02-15T12:22:27;16.80;;;11.38;;
36191;SDS011;22233;42.708;23.360;2023-02-15T12:24:59;17.20;;;10.40;;
36191;SDS011;22233;42.708;23.360;2023-02-15T12:27:30;20.23;;;12.38;;
36191;SDS011;22233;42.708;23.360;2023-02-15T12:30:00;16.45;;;12.18;;
36191;SDS011;22233;42.708;23.360;2023-02-15T12:32:34;17.95;;;11.55;;
36191;SDS011;22233;42.708;23.360;2023-02-15T12:35:02;19.95;;;11.98;;
36191;SDS011;22233;42.708;23.360;2023-02-15T12:37:35;21.88;;;12.20;;
36191;SDS011;22233;42.708;23.360;2023-02-15T12:40:02;19.67;;;13.38;;
36191;SDS011;22233;42.708;23.360;2023-02-15T12:42:44;18.88;;;11.88;;
36191;SDS011;22233;42.708;23.360;2023-02-15T12:48:28;18.70;;;11.57;;
36191;SDS011;22233;42.708;23.360;2023-02-15T12:50:47;19.90;;;11.73;;
36191;SDS011;22233;42.708;23.360;2023-02-15T12:53:18;19.10;;;12.00;;
36191;SDS011;22233;42.708;23.360;2023-02-15T12:56:03;18.05;;;11.75;;
36191;SDS011;22233;42.708;23.360;2023-02-15T12:58:38;21.10;;;13.43;;
36191;SDS011;22233;42.708;23.360;2023-02-15T13:01:15;21.25;;;11.85;;
36191;SDS011;22233;42.708;23.360;2023-02-15T13:06:25;17.45;;;10.23;;
36191;SDS011;22233;42.708;23.360;2023-02-15T13:08:58;16.92;;;10.45;;
36191;SDS011;22233;42.708;23.360;2023-02-15T13:11:36;19.50;;;12.63;;
36191;SDS011;22233;42.708;23.360;2023-02-15T13:14:14;19.08;;;11.50;;
36191;SDS011;22233;42.708;23.360;2023-02-15T13:16:44;17.83;;;11.38;;
36191;SDS011;22233;42.708;23.360;2023-02-15T13:19:18;15.73;;;11.10;;
36191;SDS011;22233;42.708;23.360;2023-02-15T13:21:52;17.95;;;12.05;;
36191;SDS011;22233;42.708;23.360;2023-02-15T13:24:29;18.20;;;11.40;;
36191;SDS011;22233;42.708;23.360;2023-02-15T13:27:02;17.25;;;10.52;;
36191;SDS011;22233;42.708;23.360;2023-02-15T13:29:30;14.80;;;9.98;;
36191;SDS011;22233;42.708;23.360;2023-02-15T13:32:00;18.25;;;11.38;;
36191;SDS011;22233;42.708;23.360;2023-02-15T13:34:36;17.80;;;11.52;;
36191;SDS011;22233;42.708;23.360;2023-02-15T13:37:05;18.15;;;11.43;;
36191;SDS011;22233;42.708;23.360;2023-02-15T13:45:01;17.30;;;11.18;;
36191;SDS011;22233;42.708;23.360;2023-02-15T13:50:15;16.30;;;11.18;;
36191;SDS011;22233;42.708;23.360;2023-02-15T14:01:57;15.55;;;10.75;;
36191;SDS011;22233;42.708;23.360;2023-02-15T14:15:00;18.35;;;11.38;;
36191;SDS011;22233;42.708;23.360;2023-02-15T14:17:57;17.42;;;11.02;;
36191;SDS011;22233;42.708;23.360;2023-02-15T14:23:24;21.07;;;13.90;;
36191;SDS011;22233;42.708;23.360;2023-02-15T14:26:21;18.02;;;10.93;;
36191;SDS011;22233;42.708;23.360;2023-02-15T14:31:21;17.88;;;13.45;;
36191;SDS011;22233;42.708;23.360;2023-02-15T14:33:54;21.80;;;11.63;;
36191;SDS011;22233;42.708;23.360;2023-02-15T14:36:21;19.38;;;11.93;;
36191;SDS011;22233;42.708;23.360;2023-02-15T14:42:18;16.45;;;11.20;;
36191;SDS011;22233;42.708;23.360;2023-02-15T14:44:55;26.85;;;18.30;;
36191;SDS011;22233;42.708;23.360;2023-02-15T14:47:37;23.77;;;16.35;;
36191;SDS011;22233;42.708;23.360;2023-02-15T14:53:54;17.55;;;11.45;;
36191;SDS011;22233;42.708;23.360;2023-02-15T14:58:35;19.63;;;13.48;;
36191;SDS011;22233;42.708;23.360;2023-02-15T15:01:28;17.10;;;11.70;;
36191;SDS011;22233;42.708;23.360;2023-02-15T15:04:06;17.42;;;11.45;;
36191;SDS011;22233;42.708;23.360;2023-02-15T15:07:03;18.08;;;11.40;;
36191;SDS011;22233;42.708;23.360;2023-02-15T15:10:06;16.85;;;11.40;;
36191;SDS011;22233;42.708;23.360;2023-02-15T15:15:09;24.30;;;14.32;;
36191;SDS011;22233;42.708;23.360;2023-02-15T15:20:13;20.80;;;12.02;;
36191;SDS011;22233;42.708;23.360;2023-02-15T15:22:50;18.30;;;12.77;;
36191;SDS011;22233;42.708;23.360;2023-02-15T15:42:01;19.27;;;12.05;;
36191;SDS011;22233;42.708;23.360;2023-02-15T15:50:18;20.80;;;13.32;;
36191;SDS011;22233;42.708;23.360;2023-02-15T15:52:49;19.77;;;13.38;;
36191;SDS011;22233;42.708;23.360;2023-02-15T15:55:18;23.17;;;14.20;;
36191;SDS011;22233;42.708;23.360;2023-02-15T15:57:48;24.80;;;14.77;;
36191;SDS011;22233;42.708;23.360;2023-02-15T16:02:57;37.83;;;18.30;;
36191;SDS011;22233;42.708;23.360;2023-02-15T16:05:22;58.90;;;28.33;;
36191;SDS011;22233;42.708;23.360;2023-02-15T16:07:48;34.75;;;18.42;;
36191;SDS011;22233;42.708;23.360;2023-02-15T16:10:24;24.55;;;15.13;;
36191;SDS011;22233;42.708;23.360;2023-02-15T16:12:52;39.85;;;19.50;;
36191;SDS011;22233;42.708;23.360;2023-02-15T16:15:28;28.05;;;15.98;;
36191;SDS011;22233;42.708;23.360;2023-02-15T16:18:00;33.70;;;16.70;;
36191;SDS011;22233;42.708;23.360;2023-02-15T16:20:30;25.20;;;15.27;;
36191;SDS011;22233;42.708;23.360;2023-02-15T16:28:06;27.90;;;16.77;;
36191;SDS011;22233;42.708;23.360;2023-02-15T16:30:34;23.80;;;15.32;;
36191;SDS011;22233;42.708;23.360;2023-02-15T16:33:14;27.13;;;15.00;;
36191;SDS011;22233;42.708;23.360;2023-02-15T16:35:52;31.60;;;17.83;;
36191;SDS011;22233;42.708;23.360;2023-02-15T16:38:18;23.20;;;14.73;;
36191;SDS011;22233;42.708;23.360;2023-02-15T16:40:57;26.00;;;15.32;;
36191;SDS011;22233;42.708;23.360;2023-02-15T16:43:24;26.38;;;15.68;;
36191;SDS011;22233;42.708;23.360;2023-02-15T16:45:55;27.08;;;15.88;;
36191;SDS011;22233;42.708;23.360;2023-02-15T16:48:28;22.05;;;13.27;;
36191;SDS011;22233;42.708;23.360;2023-02-15T16:50:55;22.05;;;13.73;;
36191;SDS011;22233;42.708;23.360;2023-02-15T16:53:24;21.77;;;13.25;;
36191;SDS011;22233;42.708;23.360;2023-02-15T16:55:52;25.73;;;14.23;;
36191;SDS011;22233;42.708;23.360;2023-02-15T16:58:23;20.10;;;13.35;;
36191;SDS011;22233;42.708;23.360;2023-02-15T17:00:55;23.23;;;14.15;;
36191;SDS011;22233;42.708;23.360;2023-02-15T17:03:23;23.38;;;14.55;;
36191;SDS011;22233;42.708;23.360;2023-02-15T17:05:52;22.73;;;13.93;;
36191;SDS011;22233;42.708;23.360;2023-02-15T17:08:32;21.50;;;13.48;;
36191;SDS011;22233;42.708;23.360;2023-02-15T17:13:24;22.70;;;14.20;;
36191;SDS011;22233;42.708;23.360;2023-02-15T17:18:23;20.60;;;12.95;;
36191;SDS011;22233;42.708;23.360;2023-02-15T17:20:50;22.42;;;12.98;;
36191;SDS011;22233;42.708;23.360;2023-02-15T17:28:46;19.40;;;12.23;;
36191;SDS011;22233;42.708;23.360;2023-02-15T17:31:14;22.42;;;12.73;;
36191;SDS011;22233;42.708;23.360;2023-02-15T17:33:42;21.35;;;13.40;;
36191;SDS011;22233;42.708;23.360;2023-02-15T17:36:20;22.90;;;13.10;;
36191;SDS011;22233;42.708;23.360;2023-02-15T17:41:22;21.63;;;13.02;;
36191;SDS011;22233;42.708;23.360;2023-02-15T17:44:06;21.52;;;13.13;;
36191;SDS011;22233;42.708;23.360;2023-02-15T17:46:34;22.27;;;12.73;;
36191;SDS011;22233;42.708;23.360;2023-02-15T17:49:02;25.48;;;14.73;;
36191;SDS011;22233;42.708;23.360;2023-02-15T17:51:28;22.13;;;14.05;;
36191;SDS011;22233;42.708;23.360;2023-02-15T17:53:54;21.48;;;14.27;;
36191;SDS011;22233;42.708;23.360;2023-02-15T17:56:38;24.25;;;14.80;;
36191;SDS011;22233;42.708;23.360;2023-02-15T17:59:04;24.90;;;15.20;;
36191;SDS011;22233;42.708;23.360;2023-02-15T18:01:42;25.33;;;14.45;;
36191;SDS011;22233;42.708;23.360;2023-02-15T18:04:29;25.40;;;13.93;;
36191;SDS011;22233;42.708;23.360;2023-02-15T18:07:14;23.95;;;14.45;;